sensor_id;sensor_type;location;lat;lon;timestamp;pressure;altitude;pressure_sealevel;temperature;humidity
4449;BME280;2237;51.870;6.160;2023-06-14T00:02:13;101336.97;;;23.14;30.88
4449;BME280;2237;51.870;6.160;2023-06-14T00:04:41;101341.84;;;23.07;30.81
4449;BME280;2237;51.870;6.160;2023-06-14T00:07:07;101339.41;;;23.04;31.22
4449;BME280;2237;51.870;6.160;2023-06-14T00:09:37;101346.06;;;22.97;31.17
4449;BME280;2237;51.870;6.160;2023-06-14T00:12:03;101345.41;;;22.93;31.24
4449;BME280;2237;51.870;6.160;2023-06-14T00:14:32;101350.31;;;22.99;31.55
4449;BME280;2237;51.870;6.160;2023-06-14T00:16:58;101345.19;;;22.96;31.63
4449;BME280;2237;51.870;6.160;2023-06-14T00:19:25;101346.44;;;22.91;31.38
4449;BME280;2237;51.870;6.160;2023-06-14T00:21:52;101353.75;;;22.87;31.90
4449;BME280;2237;51.870;6.160;2023-06-14T00:24:19;101354.94;;;22.83;31.65
4449;BME280;2237;51.870;6.160;2023-06-14T00:26:48;101364.22;;;22.76;32.16
4449;BME280;2237;51.870;6.160;2023-06-14T00:29:15;101356.66;;;22.70;31.82
4449;BME280;2237;51.870;6.160;2023-06-14T00:31:41;101362.28;;;22.66;31.92
4449;BME280;2237;51.870;6.160;2023-06-14T00:34:08;101364.63;;;22.70;31.78
4449;BME280;2237;51.870;6.160;2023-06-14T00:36:35;101364.63;;;22.70;32.02
4449;BME280;2237;51.870;6.160;2023-06-14T00:39:02;101370.91;;;22.69;32.15
4449;BME280;2237;51.870;6.160;2023-06-14T00:41:29;101369.00;;;22.57;32.93
4449;BME280;2237;51.870;6.160;2023-06-14T00:43:56;101371.28;;;22.49;33.18
4449;BME280;2237;51.870;6.160;2023-06-14T00:46:23;101374.22;;;22.44;32.84
4449;BME280;2237;51.870;6.160;2023-06-14T00:48:50;101378.66;;;22.44;32.92
4449;BME280;2237;51.870;6.160;2023-06-14T00:51:16;101376.78;;;22.46;33.04
4449;BME280;2237;51.870;6.160;2023-06-14T00:53:44;101370.72;;;22.30;33.34
4449;BME280;2237;51.870;6.160;2023-06-14T00:56:14;101366.44;;;22.27;33.51
4449;BME280;2237;51.870;6.160;2023-06-14T00:58:41;101364.53;;;22.29;33.34
4449;BME280;2237;51.870;6.160;2023-06-14T01:01:08;101371.19;;;22.22;33.66
4449;BME280;2237;51.870;6.160;2023-06-14T01:03:34;101372.31;;;22.18;33.74
4449;BME280;2237;51.870;6.160;2023-06-14T01:06:12;101374.41;;;22.13;33.91
4449;BME280;2237;51.870;6.160;2023-06-14T01:11:57;101376.50;;;22.08;33.96
4449;BME280;2237;51.870;6.160;2023-06-14T01:14:25;101368.81;;;22.04;34.15
4449;BME280;2237;51.870;6.160;2023-06-14T01:16:54;101374.91;;;22.06;34.29
4449;BME280;2237;51.870;6.160;2023-06-14T01:19:22;101378.47;;;21.90;34.62
4449;BME280;2237;51.870;6.160;2023-06-14T01:21:51;101371.97;;;21.80;34.81
4449;BME280;2237;51.870;6.160;2023-06-14T01:24:19;101371.78;;;21.83;34.97
4449;BME280;2237;51.870;6.160;2023-06-14T01:26:59;101366.69;;;21.80;34.91
4449;BME280;2237;51.870;6.160;2023-06-14T01:29:26;101369.44;;;21.79;34.81
4449;BME280;2237;51.870;6.160;2023-06-14T01:31:54;101374.91;;;21.76;35.25
4449;BME280;2237;51.870;6.160;2023-06-14T01:34:20;101372.13;;;21.63;35.37
4449;BME280;2237;51.870;6.160;2023-06-14T01:36:47;101371.38;;;21.61;35.58
4449;BME280;2237;51.870;6.160;2023-06-14T01:39:16;101377.97;;;21.54;35.86
4449;BME280;2237;51.870;6.160;2023-06-14T01:41:44;101379.66;;;21.41;35.73
4449;BME280;2237;51.870;6.160;2023-06-14T01:44:12;101377.75;;;21.43;36.08
4449;BME280;2237;51.870;6.160;2023-06-14T01:46:40;101364.97;;;21.35;36.28
4449;BME280;2237;51.870;6.160;2023-06-14T01:49:07;101369.41;;;21.35;36.52
4449;BME280;2237;51.870;6.160;2023-06-14T01:51:33;101367.69;;;21.34;36.52
4449;BME280;2237;51.870;6.160;2023-06-14T01:54:00;101375.94;;;21.29;36.57
4449;BME280;2237;51.870;6.160;2023-06-14T01:56:26;101369.09;;;21.25;36.60
4449;BME280;2237;51.870;6.160;2023-06-14T01:58:53;101374.97;;;21.30;36.60
4449;BME280;2237;51.870;6.160;2023-06-14T02:01:20;101382.66;;;21.35;36.74
4449;BME280;2237;51.870;6.160;2023-06-14T02:03:47;101365.75;;;21.22;37.02
4449;BME280;2237;51.870;6.160;2023-06-14T02:06:15;101367.25;;;21.12;37.37
4449;BME280;2237;51.870;6.160;2023-06-14T02:08:44;101374.31;;;21.11;37.51
4449;BME280;2237;51.870;6.160;2023-06-14T02:11:11;101365.63;;;21.09;37.42
4449;BME280;2237;51.870;6.160;2023-06-14T02:13:37;101371.69;;;21.11;37.77
4449;BME280;2237;51.870;6.160;2023-06-14T02:16:03;101359.69;;;21.04;37.56
4449;BME280;2237;51.870;6.160;2023-06-14T02:18:30;101361.50;;;21.04;37.63
4449;BME280;2237;51.870;6.160;2023-06-14T02:20:57;101359.03;;;21.01;37.63
4449;BME280;2237;51.870;6.160;2023-06-14T02:23:23;101359.69;;;21.04;37.82
4449;BME280;2237;51.870;6.160;2023-06-14T02:25:50;101367.03;;;20.99;38.19
4449;BME280;2237;51.870;6.160;2023-06-14T02:28:16;101366.34;;;20.96;37.94
4449;BME280;2237;51.870;6.160;2023-06-14T02:30:43;101362.94;;;20.94;38.09
4449;BME280;2237;51.870;6.160;2023-06-14T02:33:09;101369.44;;;20.88;38.48
4449;BME280;2237;51.870;6.160;2023-06-14T02:35:39;101364.31;;;20.85;38.56
4449;BME280;2237;51.870;6.160;2023-06-14T02:38:06;101365.53;;;20.79;38.60
4449;BME280;2237;51.870;6.160;2023-06-14T02:40:33;101364.16;;;20.72;38.69
4449;BME280;2237;51.870;6.160;2023-06-14T02:42:59;101366.78;;;20.72;39.37
4449;BME280;2237;51.870;6.160;2023-06-14T02:45:26;101367.16;;;20.66;39.49
4449;BME280;2237;51.870;6.160;2023-06-14T02:47:53;101373.56;;;20.62;39.26
4449;BME280;2237;51.870;6.160;2023-06-14T02:50:21;101373.72;;;20.59;39.69
4449;BME280;2237;51.870;6.160;2023-06-14T02:52:50;101369.47;;;20.57;39.95
4449;BME280;2237;51.870;6.160;2023-06-14T02:55:16;101382.53;;;20.60;39.89
4449;BME280;2237;51.870;6.160;2023-06-14T02:57:42;101375.50;;;20.59;40.25
4449;BME280;2237;51.870;6.160;2023-06-14T03:00:10;101376.88;;;20.50;40.26
4449;BME280;2237;51.870;6.160;2023-06-14T03:02:40;101385.13;;;20.44;40.16
4449;BME280;2237;51.870;6.160;2023-06-14T03:05:08;101394.34;;;20.37;40.44
4449;BME280;2237;51.870;6.160;2023-06-14T03:07:35;101393.56;;;20.35;40.65
4449;BME280;2237;51.870;6.160;2023-06-14T03:10:07;101399.81;;;20.34;40.82
4449;BME280;2237;51.870;6.160;2023-06-14T03:12:35;101402.13;;;20.23;41.22
4449;BME280;2237;51.870;6.160;2023-06-14T03:15:02;101401.16;;;20.25;41.19
4449;BME280;2237;51.870;6.160;2023-06-14T03:17:29;101400.59;;;20.19;41.73
4449;BME280;2237;51.870;6.160;2023-06-14T03:20:00;101395.63;;;20.13;42.02
4449;BME280;2237;51.870;6.160;2023-06-14T03:22:26;101402.69;;;20.12;42.23
4449;BME280;2237;51.870;6.160;2023-06-14T03:24:53;101410.56;;;20.14;42.52
4449;BME280;2237;51.870;6.160;2023-06-14T03:27:20;101412.34;;;20.13;42.75
4449;BME280;2237;51.870;6.160;2023-06-14T03:29:46;101406.69;;;20.04;43.16
4449;BME280;2237;51.870;6.160;2023-06-14T03:32:13;101414.94;;;19.98;43.22
4449;BME280;2237;51.870;6.160;2023-06-14T03:34:39;101412.53;;;19.93;43.31
4449;BME280;2237;51.870;6.160;2023-06-14T03:37:06;101414.31;;;19.93;43.50
4449;BME280;2237;51.870;6.160;2023-06-14T03:39:32;101414.41;;;19.74;43.94
4449;BME280;2237;51.870;6.160;2023-06-14T03:41:59;101419.31;;;19.82;43.91
4449;BME280;2237;51.870;6.160;2023-06-14T03:44:26;101411.84;;;19.72;44.33
4449;BME280;2237;51.870;6.160;2023-06-14T03:46:52;101422.56;;;19.69;44.80
4449;BME280;2237;51.870;6.160;2023-06-14T03:49:19;101424.44;;;19.67;45.06
4449;BME280;2237;51.870;6.160;2023-06-14T03:51:45;101432.38;;;19.67;45.33
4449;BME280;2237;51.870;6.160;2023-06-14T03:54:16;101420.28;;;19.62;45.70
4449;BME280;2237;51.870;6.160;2023-06-14T03:57:03;101431.41;;;19.68;45.21
4449;BME280;2237;51.870;6.160;2023-06-14T03:59:29;101439.91;;;19.75;45.30
4449;BME280;2237;51.870;6.160;2023-06-14T04:01:55;101428.56;;;19.73;45.35
4449;BME280;2237;51.870;6.160;2023-06-14T04:04:22;101437.09;;;19.78;45.41
4449;BME280;2237;51.870;6.160;2023-06-14T04:06:57;101439.81;;;19.77;45.68
4449;BME280;2237;51.870;6.160;2023-06-14T04:09:27;101434.69;;;19.73;45.78
4449;BME280;2237;51.870;6.160;2023-06-14T04:11:53;101443.94;;;19.65;46.30
4449;BME280;2237;51.870;6.160;2023-06-14T04:14:20;101447.28;;;19.68;46.30
4449;BME280;2237;51.870;6.160;2023-06-14T04:16:47;101458.72;;;19.69;47.07
4449;BME280;2237;51.870;6.160;2023-06-14T04:19:14;101452.56;;;19.68;47.13
4449;BME280;2237;51.870;6.160;2023-06-14T04:21:41;101456.97;;;19.68;47.39
4449;BME280;2237;51.870;6.160;2023-06-14T04:24:08;101458.94;;;19.47;48.47
4449;BME280;2237;51.870;6.160;2023-06-14T04:26:41;101465.19;;;19.45;49.24
4449;BME280;2237;51.870;6.160;2023-06-14T04:29:14;101456.06;;;19.52;48.96
4449;BME280;2237;51.870;6.160;2023-06-14T04:31:42;101456.34;;;19.46;49.46
4449;BME280;2237;51.870;6.160;2023-06-14T04:34:10;101461.34;;;19.52;49.53
4449;BME280;2237;51.870;6.160;2023-06-14T04:36:43;101469.50;;;19.47;49.82
4449;BME280;2237;51.870;6.160;2023-06-14T04:39:22;101468.63;;;19.47;50.16
4449;BME280;2237;51.870;6.160;2023-06-14T04:41:49;101461.94;;;19.57;50.00
4449;BME280;2237;51.870;6.160;2023-06-14T04:44:19;101470.97;;;19.53;50.36
4449;BME280;2237;51.870;6.160;2023-06-14T04:46:50;101469.66;;;19.61;50.07
4449;BME280;2237;51.870;6.160;2023-06-14T04:49:17;101473.69;;;19.68;49.96
4449;BME280;2237;51.870;6.160;2023-06-14T04:51:45;101474.88;;;19.63;50.44
4449;BME280;2237;51.870;6.160;2023-06-14T04:54:12;101487.00;;;19.67;50.62
4449;BME280;2237;51.870;6.160;2023-06-14T04:56:41;101481.63;;;19.68;50.99
4449;BME280;2237;51.870;6.160;2023-06-14T04:59:14;101489.56;;;19.68;50.96
4449;BME280;2237;51.870;6.160;2023-06-14T05:01:41;101484.28;;;19.68;51.58
4449;BME280;2237;51.870;6.160;2023-06-14T05:04:07;101477.22;;;19.69;51.64
4449;BME280;2237;51.870;6.160;2023-06-14T05:06:34;101484.09;;;19.54;52.32
4449;BME280;2237;51.870;6.160;2023-06-14T05:09:00;101479.28;;;19.62;51.83
4449;BME280;2237;51.870;6.160;2023-06-14T05:11:27;101491.13;;;19.72;52.14
4449;BME280;2237;51.870;6.160;2023-06-14T05:13:53;101491.53;;;19.82;51.26
4449;BME280;2237;51.870;6.160;2023-06-14T05:16:20;101488.63;;;19.69;52.28
4449;BME280;2237;51.870;6.160;2023-06-14T05:18:49;101495.47;;;19.73;52.63
4449;BME280;2237;51.870;6.160;2023-06-14T05:21:17;101494.09;;;19.84;52.57
4449;BME280;2237;51.870;6.160;2023-06-14T05:23:45;101495.00;;;19.83;53.24
4449;BME280;2237;51.870;6.160;2023-06-14T05:26:11;101495.16;;;19.97;52.12
4449;BME280;2237;51.870;6.160;2023-06-14T05:28:38;101497.66;;;20.00;52.34
4449;BME280;2237;51.870;6.160;2023-06-14T05:31:04;101493.53;;;19.94;52.27
4449;BME280;2237;51.870;6.160;2023-06-14T05:33:31;101503.59;;;20.05;52.07
4449;BME280;2237;51.870;6.160;2023-06-14T05:35:57;101496.13;;;20.13;52.26
4449;BME280;2237;51.870;6.160;2023-06-14T05:38:23;101497.03;;;20.12;52.72
4449;BME280;2237;51.870;6.160;2023-06-14T05:40:50;101506.25;;;20.05;52.93
4449;BME280;2237;51.870;6.160;2023-06-14T05:43:16;101499.84;;;20.09;52.81
4449;BME280;2237;51.870;6.160;2023-06-14T05:45:43;101504.13;;;20.11;53.31
4449;BME280;2237;51.870;6.160;2023-06-14T05:48:09;101502.19;;;19.98;53.28
4449;BME280;2237;51.870;6.160;2023-06-14T05:50:36;101513.78;;;20.12;55.45
4449;BME280;2237;51.870;6.160;2023-06-14T05:53:02;101512.16;;;20.27;55.42
4449;BME280;2237;51.870;6.160;2023-06-14T05:55:28;101512.16;;;20.44;53.83
4449;BME280;2237;51.870;6.160;2023-06-14T05:57:55;101514.91;;;20.58;53.19
4449;BME280;2237;51.870;6.160;2023-06-14T06:00:21;101519.28;;;20.59;51.97
4449;BME280;2237;51.870;6.160;2023-06-14T06:02:48;101523.13;;;20.69;51.15
4449;BME280;2237;51.870;6.160;2023-06-14T06:05:15;101523.50;;;20.79;50.66
4449;BME280;2237;51.870;6.160;2023-06-14T06:07:42;101516.53;;;20.94;50.51
4449;BME280;2237;51.870;6.160;2023-06-14T06:10:11;101527.06;;;20.95;50.36
4449;BME280;2237;51.870;6.160;2023-06-14T06:12:38;101523.47;;;20.96;49.92
4449;BME280;2237;51.870;6.160;2023-06-14T06:15:04;101528.13;;;21.08;50.58
4449;BME280;2237;51.870;6.160;2023-06-14T06:17:31;101533.94;;;21.15;49.34
4449;BME280;2237;51.870;6.160;2023-06-14T06:20:17;101542.75;;;21.15;48.69
4449;BME280;2237;51.870;6.160;2023-06-14T06:22:44;101541.06;;;21.30;48.54
4449;BME280;2237;51.870;6.160;2023-06-14T06:25:10;101545.59;;;21.44;48.84
4449;BME280;2237;51.870;6.160;2023-06-14T06:27:37;101545.47;;;21.45;47.96
4449;BME280;2237;51.870;6.160;2023-06-14T06:30:04;101540.28;;;21.59;48.11
4449;BME280;2237;51.870;6.160;2023-06-14T06:32:31;101542.75;;;21.47;48.62
4449;BME280;2237;51.870;6.160;2023-06-14T06:34:58;101548.72;;;21.66;48.43
4449;BME280;2237;51.870;6.160;2023-06-14T06:37:26;101544.09;;;21.69;47.65
4449;BME280;2237;51.870;6.160;2023-06-14T06:39:52;101550.69;;;21.62;47.42
4449;BME280;2237;51.870;6.160;2023-06-14T06:42:18;101556.09;;;21.76;46.76
4449;BME280;2237;51.870;6.160;2023-06-14T06:44:45;101559.50;;;21.78;46.64
4449;BME280;2237;51.870;6.160;2023-06-14T06:47:11;101559.91;;;21.86;46.46
4449;BME280;2237;51.870;6.160;2023-06-14T06:49:38;101559.41;;;21.95;46.15
4449;BME280;2237;51.870;6.160;2023-06-14T06:52:06;101559.31;;;21.81;45.60
4449;BME280;2237;51.870;6.160;2023-06-14T06:54:33;101565.47;;;21.98;45.63
4449;BME280;2237;51.870;6.160;2023-06-14T06:57:01;101572.19;;;22.19;45.43
4449;BME280;2237;51.870;6.160;2023-06-14T06:59:28;101568.59;;;22.20;44.43
4449;BME280;2237;51.870;6.160;2023-06-14T07:01:54;101577.16;;;22.39;44.07
4449;BME280;2237;51.870;6.160;2023-06-14T07:04:21;101566.38;;;22.42;43.06
4449;BME280;2237;51.870;6.160;2023-06-14T07:06:47;101578.47;;;22.32;43.40
4449;BME280;2237;51.870;6.160;2023-06-14T07:09:14;101584.19;;;22.40;42.74
4449;BME280;2237;51.870;6.160;2023-06-14T07:11:47;101576.25;;;22.54;42.57
4449;BME280;2237;51.870;6.160;2023-06-14T07:14:13;101584.34;;;22.67;41.88
4449;BME280;2237;51.870;6.160;2023-06-14T07:16:40;101581.25;;;22.74;41.97
4449;BME280;2237;51.870;6.160;2023-06-14T07:19:07;101588.28;;;22.75;42.53
4449;BME280;2237;51.870;6.160;2023-06-14T07:21:35;101587.81;;;22.83;41.92
4449;BME280;2237;51.870;6.160;2023-06-14T07:24:07;101599.09;;;22.86;41.68
4449;BME280;2237;51.870;6.160;2023-06-14T07:26:34;101590.47;;;22.83;40.90
4449;BME280;2237;51.870;6.160;2023-06-14T07:29:02;101595.09;;;22.93;41.00
4449;BME280;2237;51.870;6.160;2023-06-14T07:31:28;101594.53;;;23.02;41.30
4449;BME280;2237;51.870;6.160;2023-06-14T07:33:55;101592.81;;;23.01;39.61
4449;BME280;2237;51.870;6.160;2023-06-14T07:36:22;101594.34;;;23.05;39.68
4449;BME280;2237;51.870;6.160;2023-06-14T07:38:48;101601.56;;;23.03;38.84
4449;BME280;2237;51.870;6.160;2023-06-14T07:41:16;101601.66;;;23.02;38.36
4449;BME280;2237;51.870;6.160;2023-06-14T07:43:42;101601.56;;;23.03;38.59
4449;BME280;2237;51.870;6.160;2023-06-14T07:46:09;101599.47;;;23.08;37.87
4449;BME280;2237;51.870;6.160;2023-06-14T07:48:36;101608.69;;;23.17;38.52
4449;BME280;2237;51.870;6.160;2023-06-14T07:51:02;101598.44;;;23.11;38.01
4449;BME280;2237;51.870;6.160;2023-06-14T07:53:29;101613.91;;;23.19;38.09
4449;BME280;2237;51.870;6.160;2023-06-14T07:55:57;101605.94;;;23.19;38.44
4449;BME280;2237;51.870;6.160;2023-06-14T07:58:23;101609.25;;;23.36;37.93
4449;BME280;2237;51.870;6.160;2023-06-14T08:00:50;101601.88;;;23.41;37.87
4449;BME280;2237;51.870;6.160;2023-06-14T08:03:17;101605.38;;;23.42;38.03
4449;BME280;2237;51.870;6.160;2023-06-14T08:05:44;101597.28;;;23.43;37.94
4449;BME280;2237;51.870;6.160;2023-06-14T08:08:11;101608.03;;;23.56;37.95
4449;BME280;2237;51.870;6.160;2023-06-14T08:10:37;101599.44;;;23.65;37.93
4449;BME280;2237;51.870;6.160;2023-06-14T08:13:03;101604.72;;;23.79;38.00
4449;BME280;2237;51.870;6.160;2023-06-14T08:15:30;101609.19;;;23.79;37.00
4449;BME280;2237;51.870;6.160;2023-06-14T08:17:57;101609.47;;;23.88;37.61
4449;BME280;2237;51.870;6.160;2023-06-14T08:20:25;101613.81;;;23.89;37.28
4449;BME280;2237;51.870;6.160;2023-06-14T08:22:52;101604.56;;;23.95;36.93
4449;BME280;2237;51.870;6.160;2023-06-14T08:25:21;101612.31;;;23.85;37.87
4449;BME280;2237;51.870;6.160;2023-06-14T08:27:48;101588.44;;;23.84;37.15
4449;BME280;2237;51.870;6.160;2023-06-14T08:30:14;101595.97;;;23.77;37.67
4449;BME280;2237;51.870;6.160;2023-06-14T08:32:41;101596.91;;;23.90;38.51
4449;BME280;2237;51.870;6.160;2023-06-14T08:35:07;101595.75;;;23.94;37.53
4449;BME280;2237;51.870;6.160;2023-06-14T08:37:41;101588.78;;;24.06;37.52
4449;BME280;2237;51.870;6.160;2023-06-14T08:40:19;101592.84;;;24.11;35.93
4449;BME280;2237;51.870;6.160;2023-06-14T08:42:51;101600.53;;;24.16;35.44
4449;BME280;2237;51.870;6.160;2023-06-14T08:45:19;101603.69;;;24.08;34.94
4449;BME280;2237;51.870;6.160;2023-06-14T08:47:49;101603.44;;;24.26;35.77
4449;BME280;2237;51.870;6.160;2023-06-14T08:50:25;101605.47;;;24.35;35.44
4449;BME280;2237;51.870;6.160;2023-06-14T08:53:01;101599.78;;;24.27;35.13
4449;BME280;2237;51.870;6.160;2023-06-14T08:55:30;101602.66;;;24.24;36.09
4449;BME280;2237;51.870;6.160;2023-06-14T08:58:02;101605.56;;;24.33;35.24
4449;BME280;2237;51.870;6.160;2023-06-14T09:00:29;101598.16;;;24.51;35.35
4449;BME280;2237;51.870;6.160;2023-06-14T09:02:57;101599.31;;;24.47;36.42
4449;BME280;2237;51.870;6.160;2023-06-14T09:05:26;101600.38;;;24.44;34.97
4449;BME280;2237;51.870;6.160;2023-06-14T09:07:53;101596.63;;;24.47;35.62
4449;BME280;2237;51.870;6.160;2023-06-14T09:10:22;101592.50;;;24.43;37.37
4449;BME280;2237;51.870;6.160;2023-06-14T09:12:49;101588.03;;;24.43;36.26
4449;BME280;2237;51.870;6.160;2023-06-14T09:15:16;101586.88;;;24.72;44.21
4449;BME280;2237;51.870;6.160;2023-06-14T09:17:43;101609.59;;;25.16;43.60
4449;BME280;2237;51.870;6.160;2023-06-14T09:20:10;101606.97;;;25.40;43.96
4449;BME280;2237;51.870;6.160;2023-06-14T09:22:37;101604.75;;;25.59;41.55
4449;BME280;2237;51.870;6.160;2023-06-14T09:25:04;101596.94;;;25.68;39.94
4449;BME280;2237;51.870;6.160;2023-06-14T09:27:32;101587.53;;;25.63;39.57
4449;BME280;2237;51.870;6.160;2023-06-14T09:30:05;101599.44;;;25.82;38.50
4449;BME280;2237;51.870;6.160;2023-06-14T09:32:36;101603.41;;;25.77;35.92
4449;BME280;2237;51.870;6.160;2023-06-14T09:35:03;101609.78;;;25.74;34.73
4449;BME280;2237;51.870;6.160;2023-06-14T09:37:31;101607.41;;;25.46;33.83
4449;BME280;2237;51.870;6.160;2023-06-14T09:39:59;101612.72;;;25.46;34.84
4449;BME280;2237;51.870;6.160;2023-06-14T09:42:26;101610.19;;;25.45;34.65
4449;BME280;2237;51.870;6.160;2023-06-14T09:44:56;101605.44;;;25.24;34.30
4449;BME280;2237;51.870;6.160;2023-06-14T09:47:24;101611.72;;;25.36;35.05
4449;BME280;2237;51.870;6.160;2023-06-14T09:49:51;101610.75;;;25.50;33.51
4449;BME280;2237;51.870;6.160;2023-06-14T09:52:21;101615.00;;;25.52;32.53
4449;BME280;2237;51.870;6.160;2023-06-14T09:54:49;101619.88;;;25.46;32.91
4449;BME280;2237;51.870;6.160;2023-06-14T09:57:21;101618.31;;;25.56;32.91
4449;BME280;2237;51.870;6.160;2023-06-14T09:59:52;101613.50;;;25.48;32.34
4449;BME280;2237;51.870;6.160;2023-06-14T10:02:26;101608.66;;;25.66;32.67
4449;BME280;2237;51.870;6.160;2023-06-14T10:07:32;101614.97;;;25.40;31.49
4449;BME280;2237;51.870;6.160;2023-06-14T10:10:01;101612.97;;;25.56;32.62
4449;BME280;2237;51.870;6.160;2023-06-14T10:12:27;101610.13;;;25.34;32.54
4449;BME280;2237;51.870;6.160;2023-06-14T10:14:55;101603.78;;;25.47;32.51
4449;BME280;2237;51.870;6.160;2023-06-14T10:17:39;101610.66;;;25.75;32.38
4449;BME280;2237;51.870;6.160;2023-06-14T10:23:04;101617.56;;;25.77;32.38
4449;BME280;2237;51.870;6.160;2023-06-14T10:25:33;101612.66;;;25.84;31.35
4449;BME280;2237;51.870;6.160;2023-06-14T10:30:38;101605.28;;;25.88;30.16
4449;BME280;2237;51.870;6.160;2023-06-14T10:33:08;101617.72;;;26.00;31.10
4449;BME280;2237;51.870;6.160;2023-06-14T10:35:36;101615.38;;;25.95;30.74
4449;BME280;2237;51.870;6.160;2023-06-14T10:38:09;101610.22;;;26.05;30.53
4449;BME280;2237;51.870;6.160;2023-06-14T10:40:38;101604.00;;;26.04;30.32
4449;BME280;2237;51.870;6.160;2023-06-14T10:43:21;101613.38;;;26.10;30.84
4449;BME280;2237;51.870;6.160;2023-06-14T10:46:17;101607.25;;;25.97;30.23
4449;BME280;2237;51.870;6.160;2023-06-14T10:48:44;101599.25;;;25.97;30.17
4449;BME280;2237;51.870;6.160;2023-06-14T10:51:18;101606.69;;;26.04;30.46
4449;BME280;2237;51.870;6.160;2023-06-14T10:53:50;101602.47;;;25.89;29.79
4449;BME280;2237;51.870;6.160;2023-06-14T10:56:29;101597.44;;;26.21;29.85
4449;BME280;2237;51.870;6.160;2023-06-14T10:58:57;101603.03;;;26.18;29.71
4449;BME280;2237;51.870;6.160;2023-06-14T11:04:49;101609.78;;;26.34;30.12
4449;BME280;2237;51.870;6.160;2023-06-14T11:07:45;101608.00;;;26.22;30.74
4449;BME280;2237;51.870;6.160;2023-06-14T11:10:30;101607.56;;;26.28;31.02
4449;BME280;2237;51.870;6.160;2023-06-14T11:12:59;101610.47;;;26.25;30.64
4449;BME280;2237;51.870;6.160;2023-06-14T11:15:30;101602.91;;;26.19;30.87
4449;BME280;2237;51.870;6.160;2023-06-14T11:17:58;101599.41;;;26.30;30.41
4449;BME280;2237;51.870;6.160;2023-06-14T11:20:27;101600.88;;;26.23;30.97
4449;BME280;2237;51.870;6.160;2023-06-14T11:22:54;101602.88;;;26.43;31.29
4449;BME280;2237;51.870;6.160;2023-06-14T11:25:20;101610.53;;;26.59;30.68
4449;BME280;2237;51.870;6.160;2023-06-14T11:27:49;101607.53;;;26.63;30.92
4449;BME280;2237;51.870;6.160;2023-06-14T11:30:16;101603.78;;;26.77;30.82
4449;BME280;2237;51.870;6.160;2023-06-14T11:32:51;101597.22;;;26.70;31.37
4449;BME280;2237;51.870;6.160;2023-06-14T11:35:25;101598.19;;;26.58;31.71
4449;BME280;2237;51.870;6.160;2023-06-14T11:37:55;101593.88;;;26.90;31.20
4449;BME280;2237;51.870;6.160;2023-06-14T11:40:24;101587.75;;;26.66;30.30
4449;BME280;2237;51.870;6.160;2023-06-14T11:42:59;101600.91;;;26.80;30.91
4449;BME280;2237;51.870;6.160;2023-06-14T11:45:26;101601.44;;;26.96;29.98
4449;BME280;2237;51.870;6.160;2023-06-14T11:47:57;101600.91;;;26.91;29.60
4449;BME280;2237;51.870;6.160;2023-06-14T11:50:26;101607.25;;;27.01;29.51
4449;BME280;2237;51.870;6.160;2023-06-14T11:52:54;101610.41;;;27.06;28.50
4449;BME280;2237;51.870;6.160;2023-06-14T11:55:22;101613.69;;;27.21;29.01
4449;BME280;2237;51.870;6.160;2023-06-14T11:57:49;101611.88;;;27.21;29.21
4449;BME280;2237;51.870;6.160;2023-06-14T12:00:15;101611.16;;;27.19;28.62
4449;BME280;2237;51.870;6.160;2023-06-14T12:02:56;101602.38;;;27.28;29.30
4449;BME280;2237;51.870;6.160;2023-06-14T12:05:24;101596.09;;;26.96;29.28
4449;BME280;2237;51.870;6.160;2023-06-14T12:07:58;101597.03;;;26.95;29.85
4449;BME280;2237;51.870;6.160;2023-06-14T12:10:25;101610.16;;;27.31;29.35
4449;BME280;2237;51.870;6.160;2023-06-14T12:12:57;101601.94;;;27.45;28.04
4449;BME280;2237;51.870;6.160;2023-06-14T12:15:23;101609.34;;;27.53;28.42
4449;BME280;2237;51.870;6.160;2023-06-14T12:17:50;101613.72;;;27.54;29.61
4449;BME280;2237;51.870;6.160;2023-06-14T12:20:17;101613.94;;;27.62;28.39
4449;BME280;2237;51.870;6.160;2023-06-14T12:22:51;101612.22;;;27.61;27.98
4449;BME280;2237;51.870;6.160;2023-06-14T12:28:06;101601.94;;;27.45;27.39
4449;BME280;2237;51.870;6.160;2023-06-14T12:30:33;101598.50;;;27.43;28.32
4449;BME280;2237;51.870;6.160;2023-06-14T12:33:00;101610.28;;;27.63;28.39
4449;BME280;2237;51.870;6.160;2023-06-14T12:35:27;101597.84;;;27.73;27.67
4449;BME280;2237;51.870;6.160;2023-06-14T12:37:54;101602.31;;;27.84;28.11
4449;BME280;2237;51.870;6.160;2023-06-14T12:40:21;101603.72;;;27.99;27.81
4449;BME280;2237;51.870;6.160;2023-06-14T12:42:48;101597.72;;;27.86;28.15
4449;BME280;2237;51.870;6.160;2023-06-14T12:45:14;101607.69;;;27.73;27.59
4449;BME280;2237;51.870;6.160;2023-06-14T12:47:42;101609.69;;;28.02;28.25
4449;BME280;2237;51.870;6.160;2023-06-14T12:50:08;101600.31;;;28.08;27.62
4449;BME280;2237;51.870;6.160;2023-06-14T12:52:35;101603.72;;;28.10;27.43
4449;BME280;2237;51.870;6.160;2023-06-14T12:55:05;101613.47;;;28.00;28.20
4449;BME280;2237;51.870;6.160;2023-06-14T12:57:32;101615.19;;;28.12;27.99
4449;BME280;2237;51.870;6.160;2023-06-14T13:00:01;101604.84;;;28.28;27.78
4449;BME280;2237;51.870;6.160;2023-06-14T13:02:27;101611.16;;;28.38;28.49
4449;BME280;2237;51.870;6.160;2023-06-14T13:04:55;101605.66;;;28.40;27.93
4449;BME280;2237;51.870;6.160;2023-06-14T13:07:21;101601.53;;;28.56;28.04
4449;BME280;2237;51.870;6.160;2023-06-14T13:09:48;101604.34;;;28.55;27.67
4449;BME280;2237;51.870;6.160;2023-06-14T13:12:14;101605.22;;;28.55;27.27
4449;BME280;2237;51.870;6.160;2023-06-14T13:14:41;101602.50;;;28.67;27.83
4449;BME280;2237;51.870;6.160;2023-06-14T13:17:09;101607.50;;;28.60;27.74
4449;BME280;2237;51.870;6.160;2023-06-14T13:19:36;101612.50;;;28.53;27.61
4449;BME280;2237;51.870;6.160;2023-06-14T13:22:03;101601.00;;;28.63;26.67
4449;BME280;2237;51.870;6.160;2023-06-14T13:24:29;101602.41;;;28.78;27.20
4449;BME280;2237;51.870;6.160;2023-06-14T13:26:57;101616.53;;;28.80;27.41
4449;BME280;2237;51.870;6.160;2023-06-14T13:29:24;101604.28;;;28.87;27.39
4449;BME280;2237;51.870;6.160;2023-06-14T13:31:51;101605.19;;;28.97;27.12
4449;BME280;2237;51.870;6.160;2023-06-14T13:34:18;101608.50;;;29.10;27.68